sensor_id;sensor_type;location;lat;lon;timestamp;P1;durP1;ratioP1;P2;durP2;ratioP2
12110;SDS011;6119;52.372;8.990;2023-01-28T00:00:43;1.60;;;1.50;;
12110;SDS011;6119;52.372;8.990;2023-01-28T00:03:29;1.43;;;1.33;;
12110;SDS011;6119;52.372;8.990;2023-01-28T00:06:16;2.23;;;1.43;;
12110;SDS011;6119;52.372;8.990;2023-01-28T00:09:05;1.63;;;1.13;;
12110;SDS011;6119;52.372;8.990;2023-01-28T00:11:51;1.73;;;1.30;;
12110;SDS011;6119;52.372;8.990;2023-01-28T00:14:38;3.03;;;1.73;;
12110;SDS011;6119;52.372;8.990;2023-01-28T00:17:24;2.23;;;1.40;;
12110;SDS011;6119;52.372;8.990;2023-01-28T00:20:11;2.37;;;1.63;;
12110;SDS011;6119;52.372;8.990;2023-01-28T00:22:58;2.17;;;1.30;;
12110;SDS011;6119;52.372;8.990;2023-01-28T00:25:45;1.40;;;1.30;;
12110;SDS011;6119;52.372;8.990;2023-01-28T00:28:32;1.30;;;1.20;;
12110;SDS011;6119;52.372;8.990;2023-01-28T00:31:20;2.30;;;1.27;;
12110;SDS011;6119;52.372;8.990;2023-01-28T00:34:08;1.97;;;1.20;;
12110;SDS011;6119;52.372;8.990;2023-01-28T00:36:55;1.33;;;1.23;;
12110;SDS011;6119;52.372;8.990;2023-01-28T00:39:42;1.87;;;1.37;;
12110;SDS011;6119;52.372;8.990;2023-01-28T00:42:29;1.87;;;1.33;;
12110;SDS011;6119;52.372;8.990;2023-01-28T00:45:16;1.77;;;1.30;;
12110;SDS011;6119;52.372;8.990;2023-01-28T00:48:03;2.70;;;1.40;;
12110;SDS011;6119;52.372;8.990;2023-01-28T00:50:50;2.30;;;1.23;;
12110;SDS011;6119;52.372;8.990;2023-01-28T00:53:37;2.27;;;1.40;;
12110;SDS011;6119;52.372;8.990;2023-01-28T00:56:24;2.17;;;1.50;;
12110;SDS011;6119;52.372;8.990;2023-01-28T00:59:11;2.50;;;1.50;;
12110;SDS011;6119;52.372;8.990;2023-01-28T01:01:58;3.27;;;1.20;;
12110;SDS011;6119;52.372;8.990;2023-01-28T01:04:56;1.33;;;1.20;;
12110;SDS011;6119;52.372;8.990;2023-01-28T01:07:45;2.37;;;1.20;;
12110;SDS011;6119;52.372;8.990;2023-01-28T01:10:31;2.30;;;1.40;;
12110;SDS011;6119;52.372;8.990;2023-01-28T01:13:18;2.97;;;1.50;;
12110;SDS011;6119;52.372;8.990;2023-01-28T01:16:07;1.57;;;1.47;;
12110;SDS011;6119;52.372;8.990;2023-01-28T01:18:56;1.10;;;1.00;;
12110;SDS011;6119;52.372;8.990;2023-01-28T01:21:43;3.27;;;1.30;;
12110;SDS011;6119;52.372;8.990;2023-01-28T01:24:34;1.90;;;1.30;;
12110;SDS011;6119;52.372;8.990;2023-01-28T01:27:21;1.20;;;1.10;;
12110;SDS011;6119;52.372;8.990;2023-01-28T01:30:07;1.20;;;1.10;;
12110;SDS011;6119;52.372;8.990;2023-01-28T01:32:56;1.43;;;1.20;;
12110;SDS011;6119;52.372;8.990;2023-01-28T01:35:43;1.63;;;1.33;;
12110;SDS011;6119;52.372;8.990;2023-01-28T01:38:29;2.20;;;1.27;;
12110;SDS011;6119;52.372;8.990;2023-01-28T01:41:21;2.00;;;1.20;;
12110;SDS011;6119;52.372;8.990;2023-01-28T01:47:31;1.83;;;1.17;;
12110;SDS011;6119;52.372;8.990;2023-01-28T01:50:26;1.13;;;1.13;;
12110;SDS011;6119;52.372;8.990;2023-01-28T01:53:16;1.37;;;1.10;;
12110;SDS011;6119;52.372;8.990;2023-01-28T01:56:05;1.40;;;1.30;;
12110;SDS011;6119;52.372;8.990;2023-01-28T01:58:55;2.40;;;1.37;;
12110;SDS011;6119;52.372;8.990;2023-01-28T02:01:43;1.90;;;1.10;;
12110;SDS011;6119;52.372;8.990;2023-01-28T02:04:31;1.23;;;1.13;;
12110;SDS011;6119;52.372;8.990;2023-01-28T02:07:22;2.00;;;1.00;;
12110;SDS011;6119;52.372;8.990;2023-01-28T02:10:09;4.03;;;1.40;;
12110;SDS011;6119;52.372;8.990;2023-01-28T02:12:57;4.57;;;1.43;;
12110;SDS011;6119;52.372;8.990;2023-01-28T02:15:44;2.20;;;1.20;;
12110;SDS011;6119;52.372;8.990;2023-01-28T02:18:32;2.30;;;1.57;;
12110;SDS011;6119;52.372;8.990;2023-01-28T02:24:52;2.97;;;1.10;;
12110;SDS011;6119;52.372;8.990;2023-01-28T02:28:08;2.20;;;1.30;;
12110;SDS011;6119;52.372;8.990;2023-01-28T02:31:18;1.57;;;1.10;;
12110;SDS011;6119;52.372;8.990;2023-01-28T02:34:11;1.30;;;1.20;;
12110;SDS011;6119;52.372;8.990;2023-01-28T02:37:03;1.80;;;1.40;;
12110;SDS011;6119;52.372;8.990;2023-01-28T02:39:57;1.67;;;1.20;;
12110;SDS011;6119;52.372;8.990;2023-01-28T02:42:48;3.40;;;1.33;;
12110;SDS011;6119;52.372;8.990;2023-01-28T02:45:35;6.37;;;1.50;;
12110;SDS011;6119;52.372;8.990;2023-01-28T02:48:36;1.00;;;1.00;;
12110;SDS011;6119;52.372;8.990;2023-01-28T02:51:24;1.40;;;1.20;;
12110;SDS011;6119;52.372;8.990;2023-01-28T02:54:21;3.17;;;1.30;;
12110;SDS011;6119;52.372;8.990;2023-01-28T02:57:20;1.63;;;1.30;;
12110;SDS011;6119;52.372;8.990;2023-01-28T03:00:16;1.50;;;1.40;;
12110;SDS011;6119;52.372;8.990;2023-01-28T03:03:11;1.33;;;1.23;;
12110;SDS011;6119;52.372;8.990;2023-01-28T03:06:02;1.27;;;1.10;;
12110;SDS011;6119;52.372;8.990;2023-01-28T03:08:54;2.13;;;1.13;;
12110;SDS011;6119;52.372;8.990;2023-01-28T03:12:04;1.20;;;1.10;;
12110;SDS011;6119;52.372;8.990;2023-01-28T03:15:12;2.20;;;1.10;;
12110;SDS011;6119;52.372;8.990;2023-01-28T03:18:20;2.10;;;1.20;;
12110;SDS011;6119;52.372;8.990;2023-01-28T03:21:28;3.17;;;1.20;;
12110;SDS011;6119;52.372;8.990;2023-01-28T03:24:36;1.10;;;1.03;;
12110;SDS011;6119;52.372;8.990;2023-01-28T03:27:47;2.40;;;1.20;;
12110;SDS011;6119;52.372;8.990;2023-01-28T03:30:57;2.60;;;1.30;;
12110;SDS011;6119;52.372;8.990;2023-01-28T03:34:09;2.23;;;1.20;;
12110;SDS011;6119;52.372;8.990;2023-01-28T03:37:15;2.50;;;1.30;;
12110;SDS011;6119;52.372;8.990;2023-01-28T03:40:03;1.30;;;1.20;;
12110;SDS011;6119;52.372;8.990;2023-01-28T03:42:51;1.83;;;1.47;;
12110;SDS011;6119;52.372;8.990;2023-01-28T03:45:40;1.17;;;1.00;;
12110;SDS011;6119;52.372;8.990;2023-01-28T03:48:27;4.73;;;1.30;;
12110;SDS011;6119;52.372;8.990;2023-01-28T03:51:16;1.27;;;1.10;;
12110;SDS011;6119;52.372;8.990;2023-01-28T03:54:02;1.30;;;1.20;;
12110;SDS011;6119;52.372;8.990;2023-01-28T03:56:49;1.57;;;1.33;;
12110;SDS011;6119;52.372;8.990;2023-01-28T03:59:36;1.97;;;1.40;;
12110;SDS011;6119;52.372;8.990;2023-01-28T04:02:22;1.27;;;1.17;;
12110;SDS011;6119;52.372;8.990;2023-01-28T04:05:10;2.17;;;1.50;;
12110;SDS011;6119;52.372;8.990;2023-01-28T04:08:01;1.40;;;1.30;;
12110;SDS011;6119;52.372;8.990;2023-01-28T04:10:47;1.60;;;1.37;;
12110;SDS011;6119;52.372;8.990;2023-01-28T04:13:34;2.63;;;1.50;;
12110;SDS011;6119;52.372;8.990;2023-01-28T04:16:21;2.77;;;1.30;;
12110;SDS011;6119;52.372;8.990;2023-01-28T04:19:07;1.50;;;1.40;;
12110;SDS011;6119;52.372;8.990;2023-01-28T04:21:54;1.40;;;1.30;;
12110;SDS011;6119;52.372;8.990;2023-01-28T04:24:41;1.73;;;1.40;;
12110;SDS011;6119;52.372;8.990;2023-01-28T04:27:28;3.43;;;1.50;;
12110;SDS011;6119;52.372;8.990;2023-01-28T04:30:15;3.27;;;1.47;;
12110;SDS011;6119;52.372;8.990;2023-01-28T04:33:02;1.50;;;1.40;;
12110;SDS011;6119;52.372;8.990;2023-01-28T04:35:49;1.63;;;1.50;;
12110;SDS011;6119;52.372;8.990;2023-01-28T04:38:35;2.83;;;1.50;;
12110;SDS011;6119;52.372;8.990;2023-01-28T04:41:23;3.00;;;1.73;;
12110;SDS011;6119;52.372;8.990;2023-01-28T04:44:09;3.97;;;1.67;;
12110;SDS011;6119;52.372;8.990;2023-01-28T04:46:57;2.63;;;1.67;;
12110;SDS011;6119;52.372;8.990;2023-01-28T04:49:44;1.87;;;1.60;;
12110;SDS011;6119;52.372;8.990;2023-01-28T04:52:30;1.53;;;1.40;;
12110;SDS011;6119;52.372;8.990;2023-01-28T04:55:17;1.73;;;1.63;;
12110;SDS011;6119;52.372;8.990;2023-01-28T04:58:05;3.53;;;1.60;;
12110;SDS011;6119;52.372;8.990;2023-01-28T05:00:54;4.90;;;1.70;;
12110;SDS011;6119;52.372;8.990;2023-01-28T05:03:41;2.20;;;1.80;;
12110;SDS011;6119;52.372;8.990;2023-01-28T05:06:28;1.53;;;1.30;;
12110;SDS011;6119;52.372;8.990;2023-01-28T05:09:14;1.77;;;1.63;;
12110;SDS011;6119;52.372;8.990;2023-01-28T05:12:01;2.22;;;1.80;;
12110;SDS011;6119;52.372;8.990;2023-01-28T05:14:49;2.27;;;1.73;;
12110;SDS011;6119;52.372;8.990;2023-01-28T05:17:35;1.87;;;1.70;;
12110;SDS011;6119;52.372;8.990;2023-01-28T05:20:22;3.00;;;1.70;;
12110;SDS011;6119;52.372;8.990;2023-01-28T05:23:09;2.03;;;1.77;;
12110;SDS011;6119;52.372;8.990;2023-01-28T05:25:55;4.40;;;2.00;;
12110;SDS011;6119;52.372;8.990;2023-01-28T05:28:42;2.63;;;2.43;;
12110;SDS011;6119;52.372;8.990;2023-01-28T05:31:29;5.60;;;2.17;;
12110;SDS011;6119;52.372;8.990;2023-01-28T05:34:16;2.03;;;1.70;;
12110;SDS011;6119;52.372;8.990;2023-01-28T05:37:02;2.30;;;1.50;;
12110;SDS011;6119;52.372;8.990;2023-01-28T05:39:49;3.97;;;2.07;;
12110;SDS011;6119;52.372;8.990;2023-01-28T05:42:36;2.20;;;1.90;;
12110;SDS011;6119;52.372;8.990;2023-01-28T05:45:22;2.57;;;2.00;;
12110;SDS011;6119;52.372;8.990;2023-01-28T05:48:11;1.80;;;1.70;;
12110;SDS011;6119;52.372;8.990;2023-01-28T05:50:57;4.13;;;2.13;;
12110;SDS011;6119;52.372;8.990;2023-01-28T05:53:44;3.33;;;2.00;;
12110;SDS011;6119;52.372;8.990;2023-01-28T05:56:31;1.60;;;1.50;;
12110;SDS011;6119;52.372;8.990;2023-01-28T05:59:18;1.97;;;1.80;;
12110;SDS011;6119;52.372;8.990;2023-01-28T06:02:05;4.20;;;1.70;;
12110;SDS011;6119;52.372;8.990;2023-01-28T06:04:53;2.37;;;2.00;;
12110;SDS011;6119;52.372;8.990;2023-01-28T06:07:42;1.80;;;1.70;;
12110;SDS011;6119;52.372;8.990;2023-01-28T06:10:29;3.40;;;1.87;;
12110;SDS011;6119;52.372;8.990;2023-01-28T06:13:15;2.30;;;1.53;;
12110;SDS011;6119;52.372;8.990;2023-01-28T06:16:02;3.40;;;1.87;;
12110;SDS011;6119;52.372;8.990;2023-01-28T06:18:49;2.17;;;1.73;;
12110;SDS011;6119;52.372;8.990;2023-01-28T06:21:37;4.03;;;1.87;;
12110;SDS011;6119;52.372;8.990;2023-01-28T06:24:24;2.37;;;2.03;;
12110;SDS011;6119;52.372;8.990;2023-01-28T06:27:10;2.20;;;1.90;;
12110;SDS011;6119;52.372;8.990;2023-01-28T06:29:56;1.80;;;1.70;;
12110;SDS011;6119;52.372;8.990;2023-01-28T06:32:43;2.23;;;1.80;;
12110;SDS011;6119;52.372;8.990;2023-01-28T06:35:29;2.10;;;1.90;;
12110;SDS011;6119;52.372;8.990;2023-01-28T06:38:17;2.53;;;2.00;;
12110;SDS011;6119;52.372;8.990;2023-01-28T06:41:04;1.93;;;1.80;;
12110;SDS011;6119;52.372;8.990;2023-01-28T06:43:50;2.63;;;1.80;;
12110;SDS011;6119;52.372;8.990;2023-01-28T06:46:37;2.37;;;1.83;;
12110;SDS011;6119;52.372;8.990;2023-01-28T06:49:23;2.83;;;1.90;;
12110;SDS011;6119;52.372;8.990;2023-01-28T06:52:09;3.97;;;2.00;;
12110;SDS011;6119;52.372;8.990;2023-01-28T06:54:57;4.13;;;2.00;;
12110;SDS011;6119;52.372;8.990;2023-01-28T06:57:45;2.00;;;1.80;;
12110;SDS011;6119;52.372;8.990;2023-01-28T07:00:31;2.47;;;1.97;;
12110;SDS011;6119;52.372;8.990;2023-01-28T07:03:18;1.80;;;1.70;;
12110;SDS011;6119;52.372;8.990;2023-01-28T07:06:05;1.90;;;1.80;;
12110;SDS011;6119;52.372;8.990;2023-01-28T07:08:51;2.43;;;2.20;;
12110;SDS011;6119;52.372;8.990;2023-01-28T07:11:39;2.10;;;2.00;;
12110;SDS011;6119;52.372;8.990;2023-01-28T07:14:26;3.87;;;1.90;;
12110;SDS011;6119;52.372;8.990;2023-01-28T07:17:12;2.00;;;1.80;;
12110;SDS011;6119;52.372;8.990;2023-01-28T07:19:59;6.13;;;1.93;;
12110;SDS011;6119;52.372;8.990;2023-01-28T07:22:45;2.77;;;2.33;;
12110;SDS011;6119;52.372;8.990;2023-01-28T07:25:32;4.87;;;1.90;;
12110;SDS011;6119;52.372;8.990;2023-01-28T07:28:19;2.10;;;1.90;;
12110;SDS011;6119;52.372;8.990;2023-01-28T07:31:06;1.90;;;1.70;;
12110;SDS011;6119;52.372;8.990;2023-01-28T07:33:53;3.20;;;2.23;;
12110;SDS011;6119;52.372;8.990;2023-01-28T07:36:39;3.70;;;1.80;;
12110;SDS011;6119;52.372;8.990;2023-01-28T07:39:26;2.53;;;1.87;;
12110;SDS011;6119;52.372;8.990;2023-01-28T07:42:12;2.20;;;2.00;;
12110;SDS011;6119;52.372;8.990;2023-01-28T07:45:00;4.07;;;2.17;;
12110;SDS011;6119;52.372;8.990;2023-01-28T07:47:52;2.70;;;2.23;;
12110;SDS011;6119;52.372;8.990;2023-01-28T07:50:40;5.10;;;2.27;;
12110;SDS011;6119;52.372;8.990;2023-01-28T07:53:27;2.27;;;2.13;;
12110;SDS011;6119;52.372;8.990;2023-01-28T07:56:13;5.90;;;2.53;;
12110;SDS011;6119;52.372;8.990;2023-01-28T07:58:59;5.30;;;2.43;;
12110;SDS011;6119;52.372;8.990;2023-01-28T08:01:47;2.97;;;2.37;;
12110;SDS011;6119;52.372;8.990;2023-01-28T08:04:33;3.50;;;2.60;;
12110;SDS011;6119;52.372;8.990;2023-01-28T08:07:20;2.57;;;2.37;;
12110;SDS011;6119;52.372;8.990;2023-01-28T08:10:07;2.33;;;2.13;;
12110;SDS011;6119;52.372;8.990;2023-01-28T08:12:56;2.83;;;2.50;;
12110;SDS011;6119;52.372;8.990;2023-01-28T08:15:43;3.33;;;2.63;;
12110;SDS011;6119;52.372;8.990;2023-01-28T08:18:32;4.50;;;2.13;;
12110;SDS011;6119;52.372;8.990;2023-01-28T08:21:18;2.90;;;2.50;;
12110;SDS011;6119;52.372;8.990;2023-01-28T08:24:05;2.10;;;1.90;;
12110;SDS011;6119;52.372;8.990;2023-01-28T08:26:52;3.30;;;2.33;;
12110;SDS011;6119;52.372;8.990;2023-01-28T08:29:38;4.83;;;2.23;;
12110;SDS011;6119;52.372;8.990;2023-01-28T08:32:25;2.97;;;2.40;;
12110;SDS011;6119;52.372;8.990;2023-01-28T08:35:13;3.70;;;2.47;;
12110;SDS011;6119;52.372;8.990;2023-01-28T08:38:00;2.27;;;2.07;;
12110;SDS011;6119;52.372;8.990;2023-01-28T08:40:48;2.27;;;2.07;;
12110;SDS011;6119;52.372;8.990;2023-01-28T08:43:37;4.30;;;2.53;;
12110;SDS011;6119;52.372;8.990;2023-01-28T08:46:24;3.07;;;2.33;;
12110;SDS011;6119;52.372;8.990;2023-01-28T08:49:10;4.97;;;2.97;;
12110;SDS011;6119;52.372;8.990;2023-01-28T08:51:58;4.57;;;3.40;;
12110;SDS011;6119;52.372;8.990;2023-01-28T08:54:44;4.93;;;2.73;;
12110;SDS011;6119;52.372;8.990;2023-01-28T08:57:31;3.77;;;2.67;;
12110;SDS011;6119;52.372;8.990;2023-01-28T09:00:18;4.33;;;2.03;;
12110;SDS011;6119;52.372;8.990;2023-01-28T09:03:06;9.23;;;5.30;;
12110;SDS011;6119;52.372;8.990;2023-01-28T09:05:58;3.53;;;2.27;;
12110;SDS011;6119;52.372;8.990;2023-01-28T09:08:46;5.93;;;4.03;;
12110;SDS011;6119;52.372;8.990;2023-01-28T09:11:33;2.70;;;2.23;;
12110;SDS011;6119;52.372;8.990;2023-01-28T09:14:19;1.97;;;1.60;;
12110;SDS011;6119;52.372;8.990;2023-01-28T09:17:06;1.67;;;1.57;;
12110;SDS011;6119;52.372;8.990;2023-01-28T09:19:52;1.50;;;1.40;;
12110;SDS011;6119;52.372;8.990;2023-01-28T09:22:39;1.60;;;1.50;;
12110;SDS011;6119;52.372;8.990;2023-01-28T09:25:26;2.67;;;2.10;;
12110;SDS011;6119;52.372;8.990;2023-01-28T09:28:13;2.77;;;1.90;;
12110;SDS011;6119;52.372;8.990;2023-01-28T09:31:00;2.30;;;1.85;;
12110;SDS011;6119;52.372;8.990;2023-01-28T09:33:47;2.80;;;1.77;;
12110;SDS011;6119;52.372;8.990;2023-01-28T09:36:40;2.87;;;1.87;;
12110;SDS011;6119;52.372;8.990;2023-01-28T09:39:26;2.00;;;1.83;;
12110;SDS011;6119;52.372;8.990;2023-01-28T09:42:18;2.40;;;2.20;;
12110;SDS011;6119;52.372;8.990;2023-01-28T09:45:15;3.40;;;1.80;;
12110;SDS011;6119;52.372;8.990;2023-01-28T09:48:09;2.47;;;2.27;;
12110;SDS011;6119;52.372;8.990;2023-01-28T09:50:58;4.27;;;2.73;;
12110;SDS011;6119;52.372;8.990;2023-01-28T09:53:46;2.03;;;1.93;;
12110;SDS011;6119;52.372;8.990;2023-01-28T09:56:35;5.80;;;2.27;;
12110;SDS011;6119;52.372;8.990;2023-01-28T09:59:32;2.60;;;2.27;;
12110;SDS011;6119;52.372;8.990;2023-01-28T10:02:33;2.70;;;2.40;;
12110;SDS011;6119;52.372;8.990;2023-01-28T10:05:30;3.33;;;2.73;;
12110;SDS011;6119;52.372;8.990;2023-01-28T10:08:27;3.97;;;2.93;;
12110;SDS011;6119;52.372;8.990;2023-01-28T10:11:35;3.47;;;3.17;;
12110;SDS011;6119;52.372;8.990;2023-01-28T10:14:33;3.73;;;3.30;;
12110;SDS011;6119;52.372;8.990;2023-01-28T10:17:29;4.87;;;3.37;;
12110;SDS011;6119;52.372;8.990;2023-01-28T10:20:18;4.77;;;3.20;;
12110;SDS011;6119;52.372;8.990;2023-01-28T10:23:12;4.13;;;3.27;;
12110;SDS011;6119;52.372;8.990;2023-01-28T10:26:03;3.90;;;3.60;;
12110;SDS011;6119;52.372;8.990;2023-01-28T10:28:56;4.10;;;3.13;;
12110;SDS011;6119;52.372;8.990;2023-01-28T10:31:51;3.93;;;2.90;;
12110;SDS011;6119;52.372;8.990;2023-01-28T10:34:39;3.23;;;2.93;;
12110;SDS011;6119;52.372;8.990;2023-01-28T10:37:26;3.77;;;3.13;;
12110;SDS011;6119;52.372;8.990;2023-01-28T10:40:14;3.97;;;3.10;;
12110;SDS011;6119;52.372;8.990;2023-01-28T10:43:01;4.67;;;2.80;;
12110;SDS011;6119;52.372;8.990;2023-01-28T10:45:52;5.00;;;3.20;;
12110;SDS011;6119;52.372;8.990;2023-01-28T10:48:46;3.43;;;3.13;;
12110;SDS011;6119;52.372;8.990;2023-01-28T10:51:39;3.20;;;2.90;;
12110;SDS011;6119;52.372;8.990;2023-01-28T10:54:28;3.17;;;2.80;;
12110;SDS011;6119;52.372;8.990;2023-01-28T10:57:15;3.23;;;2.80;;
12110;SDS011;6119;52.372;8.990;2023-01-28T11:00:11;3.43;;;2.70;;
12110;SDS011;6119;52.372;8.990;2023-01-28T11:03:15;3.27;;;2.60;;
12110;SDS011;6119;52.372;8.990;2023-01-28T11:06:04;2.73;;;2.53;;
12110;SDS011;6119;52.372;8.990;2023-01-28T11:08:51;3.07;;;2.77;;
12110;SDS011;6119;52.372;8.990;2023-01-28T11:11:37;5.40;;;3.30;;
12110;SDS011;6119;52.372;8.990;2023-01-28T11:14:25;4.23;;;3.33;;
12110;SDS011;6119;52.372;8.990;2023-01-28T11:17:12;3.67;;;2.93;;
12110;SDS011;6119;52.372;8.990;2023-01-28T11:20:08;3.57;;;3.27;;
12110;SDS011;6119;52.372;8.990;2023-01-28T11:22:59;3.77;;;3.40;;
12110;SDS011;6119;52.372;8.990;2023-01-28T11:25:45;3.53;;;3.23;;
12110;SDS011;6119;52.372;8.990;2023-01-28T11:28:32;4.17;;;3.60;;
12110;SDS011;6119;52.372;8.990;2023-01-28T11:31:20;4.43;;;3.50;;
12110;SDS011;6119;52.372;8.990;2023-01-28T11:34:10;3.33;;;3.03;;
12110;SDS011;6119;52.372;8.990;2023-01-28T11:37:01;5.37;;;3.60;;
12110;SDS011;6119;52.372;8.990;2023-01-28T11:40:00;5.63;;;3.40;;
12110;SDS011;6119;52.372;8.990;2023-01-28T11:42:49;6.43;;;4.07;;
12110;SDS011;6119;52.372;8.990;2023-01-28T11:45:37;4.33;;;3.70;;
12110;SDS011;6119;52.372;8.990;2023-01-28T11:48:31;6.77;;;3.87;;
12110;SDS011;6119;52.372;8.990;2023-01-28T11:51:29;4.70;;;4.23;;
12110;SDS011;6119;52.372;8.990;2023-01-28T11:54:25;3.90;;;3.17;;
12110;SDS011;6119;52.372;8.990;2023-01-28T11:57:23;6.10;;;3.70;;
12110;SDS011;6119;52.372;8.990;2023-01-28T12:00:24;4.53;;;4.00;;
12110;SDS011;6119;52.372;8.990;2023-01-28T12:05:52;5.40;;;4.10;;
12110;SDS011;6119;52.372;8.990;2023-01-28T12:08:43;7.30;;;3.87;;
12110;SDS011;6119;52.372;8.990;2023-01-28T12:11:44;6.97;;;3.90;;
12110;SDS011;6119;52.372;8.990;2023-01-28T12:15:06;3.50;;;3.13;;
12110;SDS011;6119;52.372;8.990;2023-01-28T12:18:16;5.73;;;3.63;;
12110;SDS011;6119;52.372;8.990;2023-01-28T12:21:14;4.70;;;4.10;;
12110;SDS011;6119;52.372;8.990;2023-01-28T12:24:14;4.30;;;3.80;;
12110;SDS011;6119;52.372;8.990;2023-01-28T12:27:14;5.03;;;3.57;;
12110;SDS011;6119;52.372;8.990;2023-01-28T12:30:16;7.07;;;4.03;;
12110;SDS011;6119;52.372;8.990;2023-01-28T12:33:30;5.73;;;4.10;;
12110;SDS011;6119;52.372;8.990;2023-01-28T12:39:40;4.40;;;4.00;;
12110;SDS011;6119;52.372;8.990;2023-01-28T12:42:35;4.27;;;3.87;;
12110;SDS011;6119;52.372;8.990;2023-01-28T12:45:29;4.07;;;3.67;;
12110;SDS011;6119;52.372;8.990;2023-01-28T12:48:26;4.97;;;4.07;;
12110;SDS011;6119;52.372;8.990;2023-01-28T12:51:18;8.80;;;3.90;;
12110;SDS011;6119;52.372;8.990;2023-01-28T12:54:11;5.03;;;3.93;;
12110;SDS011;6119;52.372;8.990;2023-01-28T12:57:02;4.87;;;4.00;;
12110;SDS011;6119;52.372;8.990;2023-01-28T12:59:52;5.17;;;4.23;;
12110;SDS011;6119;52.372;8.990;2023-01-28T13:02:51;5.43;;;4.00;;
12110;SDS011;6119;52.372;8.990;2023-01-28T13:05:47;4.43;;;4.00;;
12110;SDS011;6119;52.372;8.990;2023-01-28T13:08:36;4.03;;;3.60;;
12110;SDS011;6119;52.372;8.990;2023-01-28T13:11:22;5.33;;;4.00;;
12110;SDS011;6119;52.372;8.990;2023-01-28T13:14:10;5.50;;;3.70;;
12110;SDS011;6119;52.372;8.990;2023-01-28T13:17:07;4.50;;;3.40;;
12110;SDS011;6119;52.372;8.990;2023-01-28T13:19:56;5.83;;;3.93;;
12110;SDS011;6119;52.372;8.990;2023-01-28T13:22:43;4.60;;;3.67;;
12110;SDS011;6119;52.372;8.990;2023-01-28T13:25:31;5.83;;;3.70;;
12110;SDS011;6119;52.372;8.990;2023-01-28T13:28:25;3.87;;;3.47;;
12110;SDS011;6119;52.372;8.990;2023-01-28T13:31:14;4.60;;;4.07;;
12110;SDS011;6119;52.372;8.990;2023-01-28T13:34:02;4.80;;;3.80;;
12110;SDS011;6119;52.372;8.990;2023-01-28T13:36:51;4.40;;;3.73;;
12110;SDS011;6119;52.372;8.990;2023-01-28T13:39:39;4.07;;;3.67;;
12110;SDS011;6119;52.372;8.990;2023-01-28T13:42:33;5.10;;;4.60;;
12110;SDS011;6119;52.372;8.990;2023-01-28T13:45:21;6.10;;;4.40;;
12110;SDS011;6119;52.372;8.990;2023-01-28T13:48:18;9.00;;;4.47;;
12110;SDS011;6119;52.372;8.990;2023-01-28T13:51:16;3.60;;;3.30;;
12110;SDS011;6119;52.372;8.990;2023-01-28T13:54:07;5.60;;;3.97;;
12110;SDS011;6119;52.372;8.990;2023-01-28T14:00:24;4.50;;;4.00;;
12110;SDS011;6119;52.372;8.990;2023-01-28T14:03:30;4.73;;;4.07;;
12110;SDS011;6119;52.372;8.990;2023-01-28T14:06:43;5.30;;;3.93;;
12110;SDS011;6119;52.372;8.990;2023-01-28T14:13:11;5.73;;;4.00;;
12110;SDS011;6119;52.372;8.990;2023-01-28T14:16:22;10.80;;;3.93;;
12110;SDS011;6119;52.372;8.990;2023-01-28T14:19:21;6.10;;;4.00;;
12110;SDS011;6119;52.372;8.990;2023-01-28T14:22:14;4.37;;;3.70;;
12110;SDS011;6119;52.372;8.990;2023-01-28T14:25:10;4.53;;;4.10;;
12110;SDS011;6119;52.372;8.990;2023-01-28T14:28:01;6.30;;;3.97;;
12110;SDS011;6119;52.372;8.990;2023-01-28T14:30:52;4.93;;;4.40;;
12110;SDS011;6119;52.372;8.990;2023-01-28T14:33:42;4.80;;;4.33;;
12110;SDS011;6119;52.372;8.990;2023-01-28T14:36:29;6.63;;;4.37;;
12110;SDS011;6119;52.372;8.990;2023-01-28T14:39:16;4.77;;;4.13;;
12110;SDS011;6119;52.372;8.990;2023-01-28T14:42:05;6.83;;;4.17;;
12110;SDS011;6119;52.372;8.990;2023-01-28T14:45:06;5.63;;;4.23;;
12110;SDS011;6119;52.372;8.990;2023-01-28T14:48:10;4.60;;;3.90;;
12110;SDS011;6119;52.372;8.990;2023-01-28T14:51:13;5.20;;;4.40;;
12110;SDS011;6119;52.372;8.990;2023-01-28T14:54:17;7.00;;;4.47;;
12110;SDS011;6119;52.372;8.990;2023-01-28T14:57:23;5.57;;;4.57;;
12110;SDS011;6119;52.372;8.990;2023-01-28T15:00:21;5.40;;;4.23;;
12110;SDS011;6119;52.372;8.990;2023-01-28T15:03:14;5.60;;;4.20;;
12110;SDS011;6119;52.372;8.990;2023-01-28T15:06:12;5.60;;;4.10;;
12110;SDS011;6119;52.372;8.990;2023-01-28T15:09:04;5.83;;;4.10;;
12110;SDS011;6119;52.372;8.990;2023-01-28T15:11:52;4.97;;;3.30;;
12110;SDS011;6119;52.372;8.990;2023-01-28T15:14:43;4.93;;;3.63;;
12110;SDS011;6119;52.372;8.990;2023-01-28T15:17:32;4.40;;;3.63;;
12110;SDS011;6119;52.372;8.990;2023-01-28T15:20:20;6.07;;;4.07;;
12110;SDS011;6119;52.372;8.990;2023-01-28T15:23:11;5.03;;;3.60;;
12110;SDS011;6119;52.372;8.990;2023-01-28T15:26:03;5.07;;;3.73;;
12110;SDS011;6119;52.372;8.990;2023-01-28T15:28:52;5.37;;;3.60;;
12110;SDS011;6119;52.372;8.990;2023-01-28T15:31:46;6.73;;;4.07;;
12110;SDS011;6119;52.372;8.990;2023-01-28T15:34:33;5.67;;;4.30;;
12110;SDS011;6119;52.372;8.990;2023-01-28T15:37:21;5.67;;;4.43;;
12110;SDS011;6119;52.372;8.990;2023-01-28T15:40:16;4.07;;;3.67;;
12110;SDS011;6119;52.372;8.990;2023-01-28T15:43:04;5.70;;;4.57;;
12110;SDS011;6119;52.372;8.990;2023-01-28T15:45:52;4.80;;;3.93;;
12110;SDS011;6119;52.372;8.990;2023-01-28T15:48:43;6.87;;;4.83;;
12110;SDS011;6119;52.372;8.990;2023-01-28T15:51:33;6.53;;;4.73;;
12110;SDS011;6119;52.372;8.990;2023-01-28T15:54:19;6.20;;;4.33;;
12110;SDS011;6119;52.372;8.990;2023-01-28T15:57:07;5.63;;;4.50;;
12110;SDS011;6119;52.372;8.990;2023-01-28T16:00:02;5.63;;;4.60;;
12110;SDS011;6119;52.372;8.990;2023-01-28T16:02:55;6.23;;;4.13;;
12110;SDS011;6119;52.372;8.990;2023-01-28T16:05:56;5.73;;;4.90;;
12110;SDS011;6119;52.372;8.990;2023-01-28T16:08:46;7.53;;;4.80;;
12110;SDS011;6119;52.372;8.990;2023-01-28T16:11:37;7.57;;;4.80;;
12110;SDS011;6119;52.372;8.990;2023-01-28T16:14:29;5.43;;;4.47;;
12110;SDS011;6119;52.372;8.990;2023-01-28T16:17:19;7.97;;;4.57;;
12110;SDS011;6119;52.372;8.990;2023-01-28T16:20:17;5.63;;;4.63;;
12110;SDS011;6119;52.372;8.990;2023-01-28T16:23:19;5.47;;;4.47;;
12110;SDS011;6119;52.372;8.990;2023-01-28T16:26:18;8.03;;;5.30;;
12110;SDS011;6119;52.372;8.990;2023-01-28T16:29:10;6.17;;;4.60;;
12110;SDS011;6119;52.372;8.990;2023-01-28T16:32:01;7.20;;;5.60;;
12110;SDS011;6119;52.372;8.990;2023-01-28T16:34:48;7.27;;;5.37;;
12110;SDS011;6119;52.372;8.990;2023-01-28T16:37:34;7.50;;;4.80;;
12110;SDS011;6119;52.372;8.990;2023-01-28T16:40:25;5.40;;;4.73;;
12110;SDS011;6119;52.372;8.990;2023-01-28T16:43:13;6.67;;;5.07;;
12110;SDS011;6119;52.372;8.990;2023-01-28T16:46:00;7.13;;;5.33;;
12110;SDS011;6119;52.372;8.990;2023-01-28T16:48:51;8.50;;;5.33;;
12110;SDS011;6119;52.372;8.990;2023-01-28T16:51:39;6.47;;;5.30;;
12110;SDS011;6119;52.372;8.990;2023-01-28T16:54:27;7.13;;;5.37;;
12110;SDS011;6119;52.372;8.990;2023-01-28T16:57:16;5.13;;;4.50;;
12110;SDS011;6119;52.372;8.990;2023-01-28T17:00:05;6.47;;;4.97;;
12110;SDS011;6119;52.372;8.990;2023-01-28T17:02:53;6.57;;;5.23;;
12110;SDS011;6119;52.372;8.990;2023-01-28T17:05:40;7.97;;;6.35;;
12110;SDS011;6119;52.372;8.990;2023-01-28T17:08:26;7.43;;;4.80;;
12110;SDS011;6119;52.372;8.990;2023-01-28T17:11:13;4.87;;;4.37;;
12110;SDS011;6119;52.372;8.990;2023-01-28T17:14:01;8.83;;;4.60;;
12110;SDS011;6119;52.372;8.990;2023-01-28T17:16:47;7.53;;;4.87;;
12110;SDS011;6119;52.372;8.990;2023-01-28T17:19:34;11.60;;;9.53;;
12110;SDS011;6119;52.372;8.990;2023-01-28T17:22:20;11.40;;;7.50;;
12110;SDS011;6119;52.372;8.990;2023-01-28T17:25:07;12.13;;;8.27;;
12110;SDS011;6119;52.372;8.990;2023-01-28T17:27:54;10.23;;;6.17;;
12110;SDS011;6119;52.372;8.990;2023-01-28T17:30:42;10.13;;;5.17;;
12110;SDS011;6119;52.372;8.990;2023-01-28T17:33:28;7.03;;;5.33;;
12110;SDS011;6119;52.372;8.990;2023-01-28T17:36:15;7.00;;;5.57;;
12110;SDS011;6119;52.372;8.990;2023-01-28T17:39:01;6.53;;;4.70;;
12110;SDS011;6119;52.372;8.990;2023-01-28T17:41:49;8.80;;;5.70;;